RUNWAY INFORMATION
Runway Length Width Elevation Displaced
Threshold
Heading | Runway Length Width Elevation Displaced
Threshold
Heading
06 3881 ft 151 ft 0 ft 449 ft 58 | 24 3881 ft 151 ft 17 ft 0 ft 238
09 4685 ft 151 ft 38 ft 577 ft 87 | 27 4685 ft 151 ft 39 ft 131 ft 267
15 2231 ft 59 ft 38 ft 0 ft 140 | 33 2231 ft 59 ft 0 ft 394 ft 320

 AIRPORT FREQUENCIES
Type APP Name APP Frequency 118.3 MHZ
Type TWR Name TWR Frequency 118.3 MHZ

 AIRPORT NEAR NAVIGATION AIDS
Type NDB Name Kirkwall Frequency 395 KHZ
Type VOR-DME Name Kirkwall Frequency 108600 KHZ

 METAR AND TAF INFORMATION
METAR FOR EGPA
ADDS - METARS form results

(1228 UTC 25 June 2021)
Data provider http://aviationweather.gov/metar/data/
 
METAR text: EGPA 251220Z 36019KT 9999 VCSH FEW008 SCT016 BKN022 11/08 Q1022
Conditions at: EGPA (KIRKWALL AIRPORT, GB) observed 1220 UTC 25 June 2021
Temperature: 11.0°C (52°F)
Dewpoint: 8.0°C (46°F) [RH = 82%]
Pressure (altimeter): 30.18 inches Hg (1022.0 mb)
Winds: from the N (360 degrees) at 22 MPH (19 knots; 9.8 m/s)
Visibility: 6 or more miles (10+ km)
Ceiling: 2200 feet AGL
Clouds: few clouds at 800 feet AGL
scattered clouds at 1600 feet AGL
broken clouds at 2200 feet AGL
Weather: VCSH  (showers in vicinity)

METAR text: EGPA 251150Z 36019KT 9999 FEW007 SCT016 BKN021 11/08 Q1022
Conditions at: EGPA (KIRKWALL AIRPORT, GB) observed 1150 UTC 25 June 2021
Temperature: 11.0°C (52°F)
Dewpoint: 8.0°C (46°F) [RH = 82%]
Pressure (altimeter): 30.18 inches Hg (1022.0 mb)
Winds: from the N (360 degrees) at 22 MPH (19 knots; 9.8 m/s)
Visibility: 6 or more miles (10+ km)
Ceiling: 2100 feet AGL
Clouds: few clouds at 700 feet AGL
scattered clouds at 1600 feet AGL
broken clouds at 2100 feet AGL
Weather: no significant weather observed at this time

Forecast for: EGPA (KIRKWALL AIRPORT, GB)
Text: TAF EGPA 251100Z 2512/2521 35017KT 9999 SCT010 BKN020
Forecast period: 1200 to 2100 UTC 25 June 2021
Forecast type: FROM: standard forecast or significant change
Winds: from the N (350 degrees) at 20 MPH (17 knots; 8.7 m/s)
Visibility: 6 or more miles (10+ km)
Ceiling: 2000 feet AGL
Clouds: scattered clouds at 1000 feet AGL
broken clouds at 2000 feet AGL
Weather: no significant weather forecast for this period
Text: TEMPO 2512/2517 01020G30KT
Forecast period: 1200 to 1700 UTC 25 June 2021
Forecast type: TEMPORARY: The following changes expected for less than half the time period
Winds: from the N (10 degrees) at 23 MPH (20 knots; 10.3 m/s)
gusting to 34 MPH (30 knots; 15.4 m/s)
Visibility: missing
Ceiling: unknown
Clouds: missing
Weather: no significant weather forecast for this period
Text: PROB30
Forecast period: 1200 to 1700 UTC 25 June 2021
Forecast type: TEMPORARY: The following changes expected for less than half the time period
Visibility: 4 miles (6 km)
Ceiling: 1200 feet AGL
Clouds: broken clouds at 1200 feet AGL
Weather: -RA  (light rain)



© 2013 - 2021, FlightSimLog.org - Powered by Virtual Airlines Manager